createdAt,value
2019-06-15T00:01:51.111Z,10.53
2019-06-15T00:05:59.401Z,10.60
2019-06-15T00:10:09.099Z,10.23
2019-06-15T00:14:17.586Z,9.43
2019-06-15T00:18:25.558Z,10.57
2019-06-15T00:22:34.018Z,9.57
2019-06-15T00:26:41.856Z,10.25
2019-06-15T00:30:50.488Z,7.07
2019-06-15T00:34:58.810Z,9.10
2019-06-15T00:39:09.357Z,10.60
2019-06-15T00:43:17.586Z,9.33
2019-06-15T00:47:25.506Z,9.08
2019-06-15T00:51:33.867Z,9.10
2019-06-15T00:55:41.920Z,11.53
2019-06-15T00:59:49.554Z,10.70
2019-06-15T01:03:57.755Z,12.33
2019-06-15T01:08:05.891Z,10.57
2019-06-15T01:12:13.619Z,10.13
2019-06-15T01:16:22.309Z,11.80
2019-06-15T01:20:30.132Z,16.33
2019-06-15T01:24:38.069Z,11.27
2019-06-15T01:28:46.043Z,8.47
2019-06-15T01:32:53.666Z,8.73
2019-06-15T01:37:02.105Z,11.57
2019-06-15T01:41:10.316Z,10.80
2019-06-15T01:45:25.035Z,11.40
2019-06-15T01:49:33.178Z,9.80
2019-06-15T01:53:40.624Z,10.63
2019-06-15T01:57:48.349Z,15.53
2019-06-15T02:01:56.619Z,12.27
2019-06-15T02:06:04.484Z,13.37
2019-06-15T02:10:14.281Z,11.30
2019-06-15T02:14:22.246Z,11.80
2019-06-15T02:18:29.825Z,14.80
2019-06-15T02:22:38.264Z,10.00
2019-06-15T02:26:46.433Z,14.33
2019-06-15T02:30:54.296Z,13.43
2019-06-15T02:35:02.370Z,10.97
2019-06-15T02:39:10.177Z,10.30
2019-06-15T02:43:18.415Z,11.10
2019-06-15T02:47:26.641Z,18.67
2019-06-15T02:51:34.997Z,11.27
2019-06-15T02:55:50.667Z,9.67
2019-06-15T02:59:53.073Z,13.23
2019-06-15T03:04:00.667Z,13.10
2019-06-15T03:08:09.153Z,9.60
2019-06-15T03:12:17.292Z,10.47
2019-06-15T03:16:25.068Z,8.77
2019-06-15T03:20:33.338Z,9.00
2019-06-15T03:24:42.083Z,10.13
2019-06-15T03:28:50.356Z,11.40
2019-06-15T03:32:58.603Z,10.70
2019-06-15T03:37:06.510Z,18.57
2019-06-15T03:41:14.852Z,27.23
2019-06-15T03:45:22.617Z,23.47
2019-06-15T03:49:30.441Z,21.10
2019-06-15T03:53:38.749Z,17.70
2019-06-15T03:57:46.562Z,16.73
2019-06-15T04:01:54.926Z,18.73
2019-06-15T04:06:03.707Z,23.67
2019-06-15T04:10:11.439Z,19.70
2019-06-15T04:14:19.705Z,25.20
2019-06-15T04:18:27.547Z,25.40
2019-06-15T04:22:36.635Z,12.65
2019-06-15T04:26:44.921Z,19.40
2019-06-15T04:30:52.957Z,10.93
2019-06-15T04:35:00.880Z,13.62
2019-06-15T04:39:10.518Z,17.17
2019-06-15T04:43:18.237Z,13.53
2019-06-15T04:47:26.448Z,14.87
2019-06-15T04:51:34.376Z,17.70
2019-06-15T04:55:42.773Z,13.25
2019-06-15T04:59:50.783Z,14.07
2019-06-15T05:03:59.542Z,13.15
2019-06-15T05:08:08.257Z,18.05
2019-06-15T05:12:16.984Z,12.68
2019-06-15T05:16:24.720Z,16.93
2019-06-15T05:20:34.546Z,11.20
2019-06-15T05:24:42.781Z,18.50
2019-06-15T05:28:52.041Z,12.15
2019-06-15T05:33:00.032Z,16.77
2019-06-15T05:37:07.735Z,13.13
2019-06-15T05:41:16.168Z,17.37
2019-06-15T05:45:24.577Z,12.95
2019-06-15T05:49:32.472Z,14.03
2019-06-15T05:53:40.404Z,12.68
2019-06-15T05:57:48.933Z,15.85
2019-06-15T06:01:56.784Z,15.85
2019-06-15T06:06:05.574Z,14.40
2019-06-15T06:10:13.689Z,14.00
2019-06-15T06:14:22.191Z,16.95
2019-06-15T06:18:30.368Z,13.83
2019-06-15T06:22:38.402Z,16.00
2019-06-15T06:26:46.618Z,14.83
2019-06-15T06:30:54.889Z,15.05
2019-06-15T06:35:02.723Z,10.80
2019-06-15T06:39:11.537Z,14.55
2019-06-15T06:43:19.342Z,18.90
2019-06-15T06:47:27.690Z,13.75
2019-06-15T06:51:36.084Z,18.50
2019-06-15T06:55:44.139Z,16.85
2019-06-15T06:59:53.771Z,16.95
2019-06-15T07:04:02.142Z,15.88
2019-06-15T07:08:09.890Z,12.37
2019-06-15T07:12:18.203Z,12.88
2019-06-15T07:16:25.972Z,15.43
2019-06-15T07:20:34.226Z,9.90
2019-06-15T07:24:42.696Z,17.00
2019-06-15T07:28:50.181Z,17.23
2019-06-15T07:32:58.361Z,15.48
2019-06-15T07:37:06.401Z,12.95
2019-06-15T07:41:14.441Z,14.55
2019-06-15T07:45:22.854Z,17.23
2019-06-15T07:49:31.064Z,11.95
2019-06-15T07:53:40.365Z,20.60
2019-06-15T07:57:48.109Z,16.32
2019-06-15T08:01:56.052Z,13.00
2019-06-15T08:06:03.512Z,9.15
2019-06-15T08:10:12.449Z,11.80
2019-06-15T08:14:20.781Z,10.40
2019-06-15T08:18:28.516Z,13.85
2019-06-15T08:22:37.070Z,10.48
2019-06-15T08:26:44.785Z,12.05
2019-06-15T08:30:54.297Z,17.25
2019-06-15T08:35:02.347Z,18.10
2019-06-15T08:39:10.107Z,20.48
2019-06-15T08:43:18.448Z,15.32
2019-06-15T08:47:26.196Z,16.17
2019-06-15T08:51:34.669Z,18.82
2019-06-15T08:55:42.707Z,13.65
2019-06-15T08:59:50.647Z,10.43
2019-06-15T09:03:58.435Z,10.28
2019-06-15T09:08:06.542Z,13.40
2019-06-15T09:12:14.664Z,7.55
2019-06-15T09:16:25.655Z,12.00
2019-06-15T09:20:32.059Z,6.70
2019-06-15T09:24:39.997Z,9.93
2019-06-15T09:28:49.154Z,13.30
2019-06-15T09:32:57.050Z,18.02
2019-06-15T09:37:05.827Z,14.90
2019-06-15T09:41:14.106Z,9.55
2019-06-15T09:45:21.785Z,8.35
2019-06-15T09:49:30.129Z,7.17
2019-06-15T09:53:38.153Z,5.78
2019-06-15T09:57:45.951Z,9.80
2019-06-15T10:01:54.107Z,7.80
2019-06-15T10:06:01.868Z,6.17
2019-06-15T10:10:11.636Z,9.83
2019-06-15T10:14:21.359Z,7.58
2019-06-15T10:18:28.858Z,8.75
2019-06-15T10:22:36.798Z,5.17
2019-06-15T10:26:44.766Z,15.03
2019-06-15T10:30:52.960Z,4.37
2019-06-15T10:35:01.221Z,8.48
2019-06-15T10:39:09.620Z,6.83
2019-06-15T10:43:17.821Z,9.20
2019-06-15T10:47:25.637Z,8.55
2019-06-15T10:51:34.087Z,6.55
2019-06-15T10:55:43.586Z,6.20
2019-06-15T10:59:57.184Z,6.37
2019-06-15T11:04:01.300Z,9.03
2019-06-15T11:08:09.772Z,7.55
2019-06-15T11:12:17.800Z,8.53
2019-06-15T11:16:26.692Z,5.53
2019-06-15T11:20:34.879Z,4.50
2019-06-15T11:24:42.896Z,7.45
2019-06-15T11:28:50.709Z,12.98
2019-06-15T11:32:59.420Z,4.15
2019-06-15T11:37:07.760Z,6.80
2019-06-15T11:41:16.623Z,7.33
2019-06-15T11:45:24.584Z,9.43
2019-06-15T11:49:32.187Z,7.55
2019-06-15T11:53:39.968Z,7.87
2019-06-15T11:57:48.463Z,10.25
2019-06-15T12:01:56.025Z,4.83
2019-06-15T12:06:04.113Z,10.53
2019-06-15T12:10:12.032Z,7.92
2019-06-15T12:14:19.715Z,12.98
2019-06-15T12:18:27.813Z,6.05
2019-06-15T12:22:35.696Z,6.60
2019-06-15T12:26:44.082Z,5.62
2019-06-15T12:30:52.475Z,6.35
2019-06-15T12:35:00.261Z,13.93
2019-06-15T12:39:08.382Z,7.12
2019-06-15T12:43:18.042Z,9.38
2019-06-15T12:47:26.286Z,5.08
2019-06-15T12:51:34.515Z,6.15
2019-06-15T12:55:42.111Z,6.30
2019-06-15T12:59:50.131Z,7.00
2019-06-15T13:03:58.624Z,4.12
2019-06-15T13:08:06.836Z,6.95
2019-06-15T13:12:15.189Z,6.10
2019-06-15T13:16:38.325Z,8.58
2019-06-15T13:20:33.084Z,9.10
2019-06-15T13:24:41.297Z,6.22
2019-06-15T13:28:51.231Z,4.55
2019-06-15T13:32:59.316Z,6.20
2019-06-15T13:37:08.018Z,9.23
2019-06-15T13:41:15.861Z,8.13
2019-06-15T13:45:24.297Z,5.65
2019-06-15T13:49:32.126Z,6.80
2019-06-15T13:53:39.843Z,8.63
2019-06-15T13:57:48.268Z,7.30
2019-06-15T14:01:56.392Z,5.65
2019-06-15T14:06:04.682Z,8.40
2019-06-15T14:10:13.335Z,9.58
2019-06-15T14:14:22.096Z,6.75
2019-06-15T14:18:30.349Z,6.50
2019-06-15T14:22:38.287Z,11.15
2019-06-15T14:26:48.275Z,7.30
2019-06-15T14:30:56.357Z,6.05
2019-06-15T14:35:04.193Z,6.05
2019-06-15T14:39:12.649Z,9.60
2019-06-15T14:43:20.899Z,9.45
2019-06-15T14:47:28.753Z,4.22
2019-06-15T14:51:37.153Z,8.65
2019-06-15T14:55:45.973Z,8.03
2019-06-15T15:00:01.509Z,5.60
2019-06-15T15:04:03.047Z,8.73
2019-06-15T15:08:11.430Z,6.87
2019-06-15T15:12:20.229Z,7.17
2019-06-15T15:16:28.572Z,7.50
2019-06-15T15:20:36.829Z,8.45
2019-06-15T15:24:45.354Z,10.60
2019-06-15T15:28:56.481Z,6.65
2019-06-15T15:33:06.696Z,11.80
2019-06-15T15:37:15.910Z,6.53
2019-06-15T15:41:26.582Z,5.05
2019-06-15T15:45:37.109Z,9.43
2019-06-15T15:49:47.215Z,7.40
2019-06-15T15:53:56.689Z,6.55
2019-06-15T15:58:06.704Z,5.60
2019-06-15T16:02:16.165Z,7.22
2019-06-15T16:06:25.900Z,6.80
2019-06-15T16:10:33.444Z,5.92
2019-06-15T16:14:41.709Z,6.40
2019-06-15T16:18:50.055Z,6.85
2019-06-15T16:22:57.928Z,4.72
2019-06-15T16:27:07.125Z,7.72
2019-06-15T16:31:18.724Z,8.00
2019-06-15T16:35:27.141Z,5.35
2019-06-15T16:39:36.181Z,8.95
2019-06-15T16:43:46.175Z,13.43
2019-06-15T16:47:54.530Z,16.45
2019-06-15T16:52:02.383Z,15.88
2019-06-15T16:56:10.659Z,16.77
2019-06-15T17:00:21.851Z,29.92
2019-06-15T17:04:30.439Z,28.85
2019-06-15T17:08:38.702Z,19.85
2019-06-15T17:12:47.705Z,17.73
2019-06-15T17:16:56.707Z,9.95
2019-06-15T17:21:07.034Z,8.45
2019-06-15T17:25:16.575Z,9.05
2019-06-15T17:29:24.723Z,9.13
2019-06-15T17:33:37.649Z,9.63
2019-06-15T17:37:43.401Z,10.18
2019-06-15T17:41:51.176Z,6.20
2019-06-15T17:45:59.488Z,14.87
2019-06-15T17:50:07.696Z,11.18
2019-06-15T17:54:17.060Z,11.30
2019-06-15T17:58:26.222Z,8.78
2019-06-15T18:02:34.619Z,11.00
2019-06-15T18:06:42.994Z,8.88
2019-06-15T18:10:50.717Z,10.65
2019-06-15T18:14:59.121Z,9.18
2019-06-15T18:19:07.070Z,8.30
2019-06-15T18:23:17.292Z,9.35
2019-06-15T18:27:26.428Z,8.50
2019-06-15T18:31:36.408Z,5.92
2019-06-15T18:35:47.050Z,10.13
2019-06-15T18:39:55.958Z,10.10
2019-06-15T18:44:06.252Z,7.20
2019-06-15T18:48:16.602Z,6.10
2019-06-15T18:52:26.486Z,10.53
2019-06-15T18:56:33.621Z,11.70
2019-06-15T19:00:41.962Z,7.67
2019-06-15T19:04:49.836Z,10.50
2019-06-15T19:08:58.526Z,8.50
2019-06-15T19:13:07.835Z,8.38
2019-06-15T19:17:16.503Z,7.17
2019-06-15T19:21:26.047Z,8.98
2019-06-15T19:25:36.435Z,7.35
2019-06-15T19:29:46.581Z,10.63
2019-06-15T19:33:56.824Z,9.40
2019-06-15T19:38:06.368Z,7.12
2019-06-15T19:42:14.600Z,8.30
2019-06-15T19:46:22.343Z,8.43
2019-06-15T19:50:30.681Z,6.60
2019-06-15T19:54:38.450Z,8.45
2019-06-15T19:58:46.586Z,8.18
2019-06-15T20:02:57.151Z,7.50
2019-06-15T20:07:06.604Z,8.03
2019-06-15T20:11:14.400Z,6.50
2019-06-15T20:15:25.923Z,7.58
2019-06-15T20:19:32.419Z,6.60
2019-06-15T20:23:40.695Z,7.75
2019-06-15T20:27:49.766Z,10.10
2019-06-15T20:31:58.263Z,8.58
2019-06-15T20:36:07.338Z,7.05
2019-06-15T20:40:16.501Z,8.03
2019-06-15T20:44:26.103Z,7.80
2019-06-15T20:48:36.271Z,5.80
2019-06-15T20:52:47.092Z,8.43
2019-06-15T20:56:54.129Z,5.90
2019-06-15T21:01:02.500Z,9.78
2019-06-15T21:05:11.194Z,7.85
2019-06-15T21:09:19.141Z,5.67
2019-06-15T21:13:27.505Z,6.50
2019-06-15T21:17:37.140Z,6.10
2019-06-15T21:21:47.184Z,5.70
2019-06-15T21:25:57.177Z,9.80
2019-06-15T21:30:06.887Z,6.80
2019-06-15T21:34:15.274Z,6.03
2019-06-15T21:38:22.978Z,8.60
2019-06-15T21:42:31.537Z,6.27
2019-06-15T21:46:39.567Z,6.28
2019-06-15T21:50:47.628Z,6.53
2019-06-15T21:54:56.104Z,6.57
2019-06-15T21:59:03.656Z,6.50
2019-06-15T22:03:12.452Z,6.80
2019-06-15T22:07:21.229Z,7.43
2019-06-15T22:11:28.971Z,7.13
2019-06-15T22:15:37.151Z,5.70
2019-06-15T22:19:46.637Z,5.47
2019-06-15T22:23:55.897Z,6.45
2019-06-15T22:28:06.777Z,7.03
2019-06-15T22:32:16.464Z,9.33
2019-06-15T22:36:25.455Z,9.27
2019-06-15T22:40:36.200Z,6.97
2019-06-15T22:44:46.249Z,7.67
2019-06-15T22:48:55.998Z,7.20
2019-06-15T22:53:04.689Z,7.80
2019-06-15T22:57:13.393Z,7.40
2019-06-15T23:01:21.665Z,6.57
2019-06-15T23:05:29.419Z,6.95
2019-06-15T23:09:37.350Z,6.53
2019-06-15T23:13:46.409Z,6.60
2019-06-15T23:17:57.074Z,8.53
2019-06-15T23:22:04.235Z,7.30
2019-06-15T23:26:12.138Z,7.60
2019-06-15T23:30:20.363Z,9.17
2019-06-15T23:34:28.497Z,14.37
2019-06-15T23:38:37.795Z,10.90
2019-06-15T23:42:46.761Z,7.80
2019-06-15T23:46:54.625Z,9.57
2019-06-15T23:51:02.314Z,10.40
2019-06-15T23:55:10.654Z,12.90
2019-06-15T23:59:19.637Z,10.98
